Soldier, Kansas
Current Conditions -  °F | °C
As of 4:53 AM on Monday 20 Oct 2014 (Local Time) from KTOP Reporting Station
Haze Haze  
Wind Chill: 49°   Ceiling: Unl
Heat Index: 49°   Visibility: 5mi
Dew Point: 49°   Wind: 0mph
Humidity: 100%   Direction: NA
Pressure: 30.01"   Gusts: NA
Location:  39.54°N, 95.96°W
Report Text: KTOP 200953Z AUTO 00000KT 5SM BR CLR 09/09 A3001 RMK AO2 SLP158 T00940094
Loading
Personal Weather Stations






























Interactive Weather Map
Tropical Storm Tracking
New forecast layout! Learn more

10-Day Weather Forecast

Advertisements
Track Severe Weather on mobile